createdAt,value
2023-04-28T00:00:02.733Z,7.5
2023-04-28T00:01:01.755Z,7.6
2023-04-28T00:02:01.790Z,7.6
2023-04-28T00:03:01.961Z,7.6
2023-04-28T00:04:02.486Z,7.6
2023-04-28T00:05:02.117Z,7.6
2023-04-28T00:06:02.216Z,7.6
2023-04-28T00:07:02.102Z,7.6
2023-04-28T00:08:02.162Z,7.7
2023-04-28T00:09:02.075Z,7.6
2023-04-28T00:10:02.136Z,7.6
2023-04-28T00:11:02.029Z,7.6
2023-04-28T00:12:02.004Z,7.6
2023-04-28T00:13:02.066Z,7.6
2023-04-28T00:14:01.986Z,7.6
2023-04-28T00:15:01.963Z,7.6
2023-04-28T00:16:02.018Z,7.6
2023-04-28T00:17:02.003Z,7.5
2023-04-28T00:18:01.979Z,7.4
2023-04-28T00:19:02.036Z,7.4
2023-04-28T00:20:01.915Z,7.4
2023-04-28T00:21:01.872Z,7.5
2023-04-28T00:22:01.969Z,7.5
2023-04-28T00:23:01.832Z,7.5
2023-04-28T00:24:01.782Z,7.5
2023-04-28T00:25:01.877Z,7.5
2023-04-28T00:26:01.753Z,7.6
2023-04-28T00:27:01.780Z,7.5
2023-04-28T00:28:01.688Z,7.5
2023-04-28T00:29:01.713Z,7.5
2023-04-28T00:30:01.568Z,7.4
2023-04-28T00:31:01.592Z,7.4
2023-04-28T00:32:01.349Z,7.5
2023-04-28T00:33:02.458Z,7.5
2023-04-28T00:34:01.547Z,7.5
2023-04-28T00:35:01.550Z,7.5
2023-04-28T00:36:01.757Z,7.5
2023-04-28T00:37:01.636Z,7.4
2023-04-28T00:38:01.650Z,7.4
2023-04-28T00:39:01.535Z,7.4
2023-04-28T00:40:01.559Z,7.4
2023-04-28T00:41:01.421Z,7.4
2023-04-28T00:42:01.481Z,7.4
2023-04-28T00:43:01.348Z,7.4
2023-04-28T00:44:01.401Z,7.3
2023-04-28T00:45:02.338Z,7.4
2023-04-28T00:46:02.236Z,7.4
2023-04-28T00:47:02.264Z,7.4
2023-04-28T00:48:02.321Z,7.4
2023-04-28T00:49:02.153Z,7.4
2023-04-28T00:50:02.238Z,7.4
2023-04-28T00:51:02.117Z,7.4
2023-04-28T00:52:02.163Z,7.3
2023-04-28T00:53:02.097Z,7.3
2023-04-28T00:54:02.080Z,7.4
2023-04-28T00:55:01.998Z,7.3
2023-04-28T00:56:01.940Z,7.3
2023-04-28T00:57:01.989Z,7.3
2023-04-28T00:58:01.832Z,7.3
2023-04-28T00:59:01.777Z,7.4
2023-04-28T01:00:02.910Z,7.4
2023-04-28T01:01:01.840Z,7.3
2023-04-28T01:02:01.638Z,7.3
2023-04-28T01:03:01.840Z,7.3
2023-04-28T01:04:01.519Z,7.3
2023-04-28T01:05:02.311Z,7.3
2023-04-28T01:06:02.365Z,7.2
2023-04-28T01:07:02.234Z,7.3
2023-04-28T01:08:02.366Z,7.2
2023-04-28T01:09:01.289Z,7.2
2023-04-28T01:10:02.361Z,7.2
2023-04-28T01:11:02.214Z,7.2
2023-04-28T01:12:02.357Z,7.2
2023-04-28T01:13:02.255Z,7.2
2023-04-28T01:14:02.315Z,7.2
2023-04-28T01:15:02.207Z,7.2
2023-04-28T01:16:02.243Z,7.1
2023-04-28T01:17:01.989Z,7.1
2023-04-28T01:18:02.070Z,7.1
2023-04-28T01:19:01.901Z,7
2023-04-28T01:20:01.861Z,7.1
2023-04-28T01:21:01.967Z,7.1
2023-04-28T01:22:01.879Z,7.1
2023-04-28T01:23:01.808Z,7.1
2023-04-28T01:24:01.853Z,7.1
2023-04-28T01:25:01.783Z,7.1
2023-04-28T01:26:01.857Z,7.1
2023-04-28T01:27:01.671Z,7.1
2023-04-28T01:28:01.714Z,7
2023-04-28T01:29:01.592Z,6.9
2023-04-28T01:30:01.584Z,6.6
2023-04-28T01:31:01.380Z,6.6
2023-04-28T01:32:01.397Z,6.8
2023-04-28T01:33:01.502Z,6.8
2023-04-28T01:34:01.456Z,6.8
2023-04-28T01:35:01.428Z,6.9
2023-04-28T01:36:01.325Z,6.9
2023-04-28T01:37:02.368Z,6.8
2023-04-28T01:38:02.219Z,6.8
2023-04-28T01:39:02.305Z,6.7
2023-04-28T01:40:02.170Z,6.7
2023-04-28T01:41:02.196Z,6.7
2023-04-28T01:42:02.091Z,6.7
2023-04-28T01:43:02.174Z,6.6
2023-04-28T01:44:01.993Z,6.6
2023-04-28T01:45:02.054Z,6.6
2023-04-28T01:46:01.937Z,6.6
2023-04-28T01:47:01.745Z,6.6
2023-04-28T01:48:01.826Z,6.6
2023-04-28T01:49:01.676Z,6.6
2023-04-28T01:50:01.693Z,6.5
2023-04-28T01:51:01.680Z,6.5
2023-04-28T01:52:01.565Z,6.5
2023-04-28T01:53:01.498Z,6.5
2023-04-28T01:54:01.524Z,6.5
2023-04-28T01:55:01.396Z,6.4
2023-04-28T01:56:01.462Z,6.4
2023-04-28T01:57:02.426Z,6.5
2023-04-28T01:58:01.451Z,6.5
2023-04-28T01:59:01.528Z,6.5
2023-04-28T02:00:01.774Z,6.6
2023-04-28T02:01:02.051Z,6.6
2023-04-28T02:02:01.368Z,6.6
2023-04-28T02:03:02.375Z,6.6
2023-04-28T02:04:01.398Z,6.6
2023-04-28T02:05:01.750Z,6.7
2023-04-28T02:06:01.575Z,6.7
2023-04-28T02:07:01.611Z,6.7
2023-04-28T02:08:01.465Z,6.6
2023-04-28T02:09:01.521Z,6.6
2023-04-28T02:10:01.374Z,6.5
2023-04-28T02:11:01.554Z,6.5
2023-04-28T02:12:01.410Z,6.3
2023-04-28T02:13:01.425Z,6.2
2023-04-28T02:14:02.364Z,6.4
2023-04-28T02:15:02.297Z,6.4
2023-04-28T02:16:02.414Z,6.5
2023-04-28T02:17:02.064Z,6.4
2023-04-28T02:18:02.174Z,6.4
2023-04-28T02:19:01.935Z,6.4
2023-04-28T02:20:01.916Z,6.2
2023-04-28T02:21:01.928Z,6
2023-04-28T02:22:01.788Z,6
2023-04-28T02:23:01.702Z,6
2023-04-28T02:24:01.765Z,6.1
2023-04-28T02:25:01.637Z,6
2023-04-28T02:26:01.663Z,6
2023-04-28T02:27:01.493Z,6
2023-04-28T02:28:01.527Z,6
2023-04-28T02:29:01.385Z,6.1
2023-04-28T02:30:01.403Z,6.1
2023-04-28T02:31:01.290Z,6
2023-04-28T02:32:02.278Z,6
2023-04-28T02:33:02.405Z,6
2023-04-28T02:34:02.257Z,6
2023-04-28T02:35:02.332Z,5.9
2023-04-28T02:36:01.274Z,6.1
2023-04-28T02:37:02.308Z,6.2
2023-04-28T02:38:02.211Z,6.2
2023-04-28T02:39:02.276Z,6.2
2023-04-28T02:40:02.171Z,6.1
2023-04-28T02:41:02.168Z,6.1
2023-04-28T02:42:02.094Z,6.1
2023-04-28T02:43:02.162Z,6.2
2023-04-28T02:44:01.960Z,6.1
2023-04-28T02:45:02.010Z,6.1
2023-04-28T02:46:01.903Z,6.1
2023-04-28T02:47:01.839Z,6.1
2023-04-28T02:48:02.205Z,6
2023-04-28T02:49:02.052Z,6
2023-04-28T02:50:02.089Z,6
2023-04-28T02:51:02.069Z,5.9
2023-04-28T02:52:01.990Z,6
2023-04-28T02:53:02.049Z,5.9
2023-04-28T02:54:01.898Z,5.9
2023-04-28T02:55:01.809Z,5.8
2023-04-28T02:56:01.864Z,5.7
2023-04-28T02:57:01.713Z,5.7
2023-04-28T02:58:01.754Z,5.8
2023-04-28T02:59:01.614Z,5.7
2023-04-28T03:00:02.908Z,5.7
2023-04-28T03:01:01.813Z,5.8
2023-04-28T03:02:01.477Z,5.6
2023-04-28T03:03:01.621Z,5.6
2023-04-28T03:04:02.267Z,5.6
2023-04-28T03:05:01.496Z,5.7
2023-04-28T03:06:01.629Z,5.7
2023-04-28T03:07:01.470Z,5.7
2023-04-28T03:08:01.489Z,5.6
2023-04-28T03:09:01.346Z,5.6
2023-04-28T03:10:01.350Z,5.6
2023-04-28T03:11:01.531Z,5.6
2023-04-28T03:12:01.568Z,5.5
2023-04-28T03:13:01.412Z,5.6
2023-04-28T03:14:01.470Z,5.5
2023-04-28T03:15:01.311Z,5.5
2023-04-28T03:16:02.413Z,5.5
2023-04-28T03:17:02.308Z,5.4
2023-04-28T03:18:02.394Z,5.5
2023-04-28T03:19:02.197Z,5.5
2023-04-28T03:20:02.248Z,5.4
2023-04-28T03:21:02.156Z,5.4
2023-04-28T03:22:02.184Z,5.3
2023-04-28T03:23:02.141Z,5.3
2023-04-28T03:24:04.141Z,5.2
2023-04-28T03:25:01.526Z,5.2
2023-04-28T03:26:01.577Z,5.2
2023-04-28T03:27:01.422Z,5.2
2023-04-28T03:28:01.498Z,5.3
2023-04-28T03:29:01.339Z,5.3
2023-04-28T03:30:01.279Z,5.3
2023-04-28T03:31:02.287Z,5.2
2023-04-28T03:32:02.073Z,5.3
2023-04-28T03:33:02.114Z,5.3
2023-04-28T03:34:01.904Z,5.4
2023-04-28T03:35:01.877Z,5.4
2023-04-28T03:36:01.893Z,5.4
2023-04-28T03:37:01.781Z,5.4
2023-04-28T03:38:01.854Z,5.3
2023-04-28T03:39:01.726Z,5.4
2023-04-28T03:40:01.750Z,5.5
2023-04-28T03:41:01.610Z,5.4
2023-04-28T03:42:01.670Z,5.4
2023-04-28T03:43:03.331Z,5.5
2023-04-28T03:44:01.644Z,5.4
2023-04-28T03:45:01.730Z,5.4
2023-04-28T03:46:01.619Z,5.4
2023-04-28T03:47:01.590Z,5.5
2023-04-28T03:48:01.676Z,5.4
2023-04-28T03:49:01.532Z,5.4
2023-04-28T03:50:01.529Z,5.5
2023-04-28T03:51:01.432Z,5.5
2023-04-28T03:52:01.537Z,5.4
2023-04-28T03:53:01.423Z,5.5
2023-04-28T03:54:01.449Z,5.5
2023-04-28T03:55:01.339Z,5.5
2023-04-28T03:56:01.444Z,5.5
2023-04-28T03:57:01.330Z,5.4
2023-04-28T03:58:01.378Z,5.4
2023-04-28T03:59:02.367Z,5.6
2023-04-28T04:00:02.208Z,5.4
2023-04-28T04:01:02.256Z,5.6
2023-04-28T04:02:01.944Z,5.5
2023-04-28T04:03:02.054Z,5.6
2023-04-28T04:04:02.268Z,5.5
2023-04-28T04:05:02.328Z,5.6
2023-04-28T04:06:01.749Z,5.5
2023-04-28T04:07:01.590Z,5.7
2023-04-28T04:08:02.346Z,5.7
2023-04-28T04:09:02.342Z,5.7
2023-04-28T04:10:04.325Z,5.7
2023-04-28T04:11:01.532Z,5.7
2023-04-28T04:12:01.546Z,5.7
2023-04-28T04:13:01.410Z,5.6
2023-04-28T04:14:01.496Z,5.7
2023-04-28T04:15:01.316Z,5.6
2023-04-28T04:16:01.383Z,5.7
2023-04-28T04:17:02.100Z,5.6
2023-04-28T04:18:02.077Z,5.7
2023-04-28T04:19:02.089Z,5.8
2023-04-28T04:20:01.915Z,5.9
2023-04-28T04:21:01.888Z,5.8
2023-04-28T04:22:01.872Z,5.8
2023-04-28T04:23:01.785Z,5.8
2023-04-28T04:24:01.759Z,5.9
2023-04-28T04:25:01.757Z,5.8
2023-04-28T04:26:01.643Z,5.7
2023-04-28T04:27:01.624Z,5.8
2023-04-28T04:28:01.514Z,5.9
2023-04-28T04:29:01.620Z,5.8
2023-04-28T04:30:01.437Z,5.8
2023-04-28T04:31:01.473Z,5.8
2023-04-28T04:32:01.335Z,5.9
2023-04-28T04:33:01.461Z,5.9
2023-04-28T04:34:02.387Z,5.9
2023-04-28T04:35:02.257Z,6.2
2023-04-28T04:36:02.332Z,6.1
2023-04-28T04:37:02.284Z,6.2
2023-04-28T04:38:02.131Z,6.1
2023-04-28T04:39:02.049Z,6.1
2023-04-28T04:40:02.105Z,6
2023-04-28T04:41:01.952Z,6.3
2023-04-28T04:42:07.422Z,6.1
2023-04-28T04:43:01.410Z,6.2
2023-04-28T04:44:01.488Z,6.2
2023-04-28T04:45:01.319Z,6.2
2023-04-28T04:46:01.376Z,6.3
2023-04-28T04:47:02.210Z,6.4
2023-04-28T04:48:02.208Z,6.4
2023-04-28T04:49:02.078Z,6.4
2023-04-28T04:50:02.008Z,6.5
2023-04-28T04:51:01.982Z,6.4
2023-04-28T04:52:02.368Z,6.4
2023-04-28T04:53:02.011Z,6.6
2023-04-28T04:54:02.091Z,6.5
2023-04-28T04:55:01.920Z,6.5
2023-04-28T04:56:01.870Z,6.2
2023-04-28T04:57:01.909Z,6.4
2023-04-28T04:58:01.729Z,6.4
2023-04-28T04:59:01.786Z,6.6
2023-04-28T05:00:01.653Z,6.6
2023-04-28T05:01:01.681Z,6.6
2023-04-28T05:02:01.375Z,6.6
2023-04-28T05:03:01.387Z,6.5
2023-04-28T05:04:01.506Z,6.6
2023-04-28T05:05:12.737Z,6.7
2023-04-28T05:06:01.499Z,6.8
2023-04-28T05:07:01.601Z,6.8
2023-04-28T05:08:01.462Z,6.8
2023-04-28T05:09:01.498Z,6.7
2023-04-28T05:10:01.362Z,6.8
2023-04-28T05:11:01.415Z,6.9
2023-04-28T05:12:02.376Z,7
2023-04-28T05:13:02.241Z,7
2023-04-28T05:14:02.323Z,7.1
2023-04-28T05:15:02.174Z,7.3
2023-04-28T05:16:02.297Z,7.2
2023-04-28T05:17:01.815Z,7.2
2023-04-28T05:18:01.899Z,7.4
2023-04-28T05:19:01.744Z,7.6
2023-04-28T05:20:01.822Z,7.7
2023-04-28T05:21:01.709Z,7.7
2023-04-28T05:22:01.709Z,7.9
2023-04-28T05:23:01.615Z,7.8
2023-04-28T05:24:01.667Z,7.9
2023-04-28T05:25:01.503Z,8
2023-04-28T05:26:01.543Z,8
2023-04-28T05:27:01.400Z,8.1
2023-04-28T05:28:01.437Z,8.2
2023-04-28T05:29:01.319Z,8.3
2023-04-28T05:30:02.363Z,8.2
2023-04-28T05:31:02.289Z,8.2
2023-04-28T05:32:01.875Z,8.1
2023-04-28T05:33:01.944Z,8.3
2023-04-28T05:34:01.835Z,8.3
2023-04-28T05:35:01.769Z,8.3
2023-04-28T05:36:01.838Z,8.3
2023-04-28T05:37:01.709Z,8.4
2023-04-28T05:38:01.759Z,8.4
2023-04-28T05:39:01.610Z,8.5
2023-04-28T05:40:01.609Z,8.6
2023-04-28T05:41:01.410Z,8.7
2023-04-28T05:42:01.476Z,8.7
2023-04-28T05:43:01.311Z,8.7
2023-04-28T05:44:02.375Z,8.7
2023-04-28T05:45:02.255Z,8.5
2023-04-28T05:46:02.278Z,8.5
2023-04-28T05:47:01.803Z,8.6
2023-04-28T05:48:01.733Z,8.6
2023-04-28T05:49:01.549Z,8.6
2023-04-28T05:50:01.576Z,8.3
2023-04-28T05:51:01.468Z,8.3
2023-04-28T05:52:01.550Z,8.5
2023-04-28T05:53:01.370Z,8.5
2023-04-28T05:54:01.445Z,8.4
2023-04-28T05:55:01.277Z,8.5
2023-04-28T05:56:01.386Z,8.5
2023-04-28T05:57:02.323Z,8.2
2023-04-28T05:58:02.226Z,8.2
2023-04-28T05:59:02.299Z,8.3
2023-04-28T06:00:02.177Z,8.3
2023-04-28T06:01:02.232Z,8.3
2023-04-28T06:02:01.946Z,8.4
2023-04-28T06:03:02.295Z,8.4
2023-04-28T06:04:01.782Z,8.5
2023-04-28T06:05:01.929Z,8.6
2023-04-28T06:06:01.861Z,8.5
2023-04-28T06:07:01.820Z,8.4
2023-04-28T06:08:01.760Z,8.5
2023-04-28T06:09:01.810Z,8.6
2023-04-28T06:10:01.676Z,8.7
2023-04-28T06:11:01.690Z,8.8
2023-04-28T06:12:01.580Z,8.8
2023-04-28T06:13:01.601Z,8.8
2023-04-28T06:14:01.451Z,8.8
2023-04-28T06:15:01.476Z,8.8
2023-04-28T06:16:01.354Z,8.9
2023-04-28T06:17:02.152Z,9
2023-04-28T06:18:02.390Z,8.9
2023-04-28T06:19:02.296Z,9
2023-04-28T06:20:02.496Z,9
2023-04-28T06:21:02.237Z,9.1
2023-04-28T06:22:02.338Z,8.9
2023-04-28T06:23:02.238Z,9
2023-04-28T06:24:02.306Z,9.1
2023-04-28T06:25:02.149Z,9.1
2023-04-28T06:26:02.214Z,9.2
2023-04-28T06:27:02.096Z,9.1
2023-04-28T06:28:02.125Z,9.1
2023-04-28T06:29:01.996Z,9.3
2023-04-28T06:30:01.967Z,9.4
2023-04-28T06:31:01.997Z,9.4
2023-04-28T06:32:01.825Z,9.5
2023-04-28T06:33:01.772Z,9.3
2023-04-28T06:34:01.826Z,9.5
2023-04-28T06:35:01.684Z,9.5
2023-04-28T06:36:01.701Z,9.3
2023-04-28T06:37:01.589Z,9.5
2023-04-28T06:38:01.651Z,9.4
2023-04-28T06:39:01.502Z,9.6
2023-04-28T06:40:01.597Z,9.4
2023-04-28T06:41:01.421Z,9.4
2023-04-28T06:42:01.477Z,9.6
2023-04-28T06:43:02.224Z,9.5
2023-04-28T06:44:01.916Z,9.5
2023-04-28T06:45:01.835Z,9.6
2023-04-28T06:46:01.852Z,9.5
2023-04-28T06:47:01.764Z,9.5
2023-04-28T06:48:01.828Z,9.5
2023-04-28T06:49:01.795Z,9.5
2023-04-28T06:50:01.643Z,9.6
2023-04-28T06:51:01.717Z,9.6
2023-04-28T06:52:02.372Z,9.7
2023-04-28T06:53:01.331Z,9.7
2023-04-28T06:54:01.398Z,9.8
2023-04-28T06:55:02.346Z,10
2023-04-28T06:56:02.275Z,9.9
2023-04-28T06:57:02.310Z,9.9
2023-04-28T06:58:02.253Z,10
2023-04-28T06:59:02.345Z,10.2
2023-04-28T07:00:03.091Z,10.2
2023-04-28T07:01:02.163Z,10.4
2023-04-28T07:02:02.128Z,10.5
2023-04-28T07:03:02.273Z,10.5
2023-04-28T07:04:01.593Z,10.8
2023-04-28T07:05:01.762Z,10.5
2023-04-28T07:06:01.667Z,10.5
2023-04-28T07:07:01.821Z,10.7
2023-04-28T07:08:01.677Z,11
2023-04-28T07:09:01.743Z,11.2
2023-04-28T07:10:01.526Z,10.9
2023-04-28T07:11:01.578Z,10.6
2023-04-28T07:12:01.454Z,10.6
2023-04-28T07:13:01.482Z,10.5
2023-04-28T07:14:01.364Z,11.2
2023-04-28T07:15:01.394Z,11.3
2023-04-28T07:16:01.279Z,11
2023-04-28T07:17:02.269Z,10.9
2023-04-28T07:18:02.293Z,11
2023-04-28T07:19:02.204Z,11.1
2023-04-28T07:20:02.289Z,10.9
2023-04-28T07:21:04.179Z,11.1
2023-04-28T07:22:01.327Z,11.2
2023-04-28T07:23:01.389Z,10.9
2023-04-28T07:24:02.335Z,11
2023-04-28T07:25:02.233Z,11.3
2023-04-28T07:26:02.307Z,11.3
2023-04-28T07:27:02.193Z,11.5
2023-04-28T07:28:02.244Z,11.7
2023-04-28T07:29:02.147Z,11.5
2023-04-28T07:30:08.984Z,11.5
2023-04-28T07:31:02.206Z,11.4
2023-04-28T07:32:01.862Z,11.7
2023-04-28T07:33:01.476Z,12.1
2023-04-28T07:34:02.381Z,11.9
2023-04-28T07:35:02.253Z,12
2023-04-28T07:36:02.285Z,12.1
2023-04-28T07:37:02.468Z,12.2
2023-04-28T07:38:02.237Z,12
2023-04-28T07:39:02.132Z,11.9
2023-04-28T07:40:02.224Z,12.1
2023-04-28T07:41:02.115Z,12.3
2023-04-28T07:42:02.113Z,12.1
2023-04-28T07:43:02.033Z,12.5
2023-04-28T07:44:02.071Z,12.4
2023-04-28T07:45:01.916Z,12.3
2023-04-28T07:46:01.921Z,12.3
2023-04-28T07:47:01.950Z,12.6
2023-04-28T07:48:02.176Z,12.6
2023-04-28T07:49:02.054Z,12.6
2023-04-28T07:50:02.045Z,13
2023-04-28T07:51:02.111Z,12.9
2023-04-28T07:52:01.988Z,12.8
2023-04-28T07:53:01.954Z,12.7
2023-04-28T07:54:02.057Z,12.9
2023-04-28T07:55:01.930Z,12.6
2023-04-28T07:56:01.928Z,12.9
2023-04-28T07:57:01.924Z,12.8
2023-04-28T07:58:01.879Z,12.8
2023-04-28T07:59:01.846Z,12.7
2023-04-28T08:00:01.937Z,12.7
2023-04-28T08:01:01.793Z,12.7
2023-04-28T08:02:01.680Z,13
2023-04-28T08:03:01.776Z,13.1
2023-04-28T08:04:02.143Z,13.2
2023-04-28T08:05:02.339Z,13.1
2023-04-28T08:06:02.096Z,13.3
2023-04-28T08:07:02.107Z,13.3
2023-04-28T08:08:02.030Z,13.2
2023-04-28T08:09:02.118Z,13.3
2023-04-28T08:10:01.949Z,12.9
2023-04-28T08:11:01.910Z,12.8
2023-04-28T08:12:01.981Z,13.7
2023-04-28T08:13:01.847Z,13.7
2023-04-28T08:14:01.811Z,13.8
2023-04-28T08:15:01.862Z,13.4
2023-04-28T08:16:01.791Z,13.3
2023-04-28T08:17:01.446Z,13.5
2023-04-28T08:18:01.502Z,13.5
2023-04-28T08:19:01.366Z,13.7
2023-04-28T08:20:01.393Z,13.4
2023-04-28T08:21:02.350Z,13.4
2023-04-28T08:22:02.200Z,13.6
2023-04-28T08:23:02.320Z,13.7
2023-04-28T08:24:02.156Z,13.7
2023-04-28T08:25:02.265Z,13.8
2023-04-28T08:26:02.132Z,13.7
2023-04-28T08:27:02.184Z,14.1
2023-04-28T08:28:02.020Z,14.2
2023-04-28T08:29:02.117Z,14
2023-04-28T08:30:02.053Z,13.8
2023-04-28T08:31:02.005Z,13.7
2023-04-28T08:32:02.070Z,13.9
2023-04-28T08:33:02.153Z,13.5
2023-04-28T08:34:01.981Z,13.7
2023-04-28T08:35:01.933Z,14.3
2023-04-28T08:36:01.960Z,14.5
2023-04-28T08:37:01.851Z,14.5
2023-04-28T08:38:01.795Z,14
2023-04-28T08:39:01.807Z,14.2
2023-04-28T08:40:01.740Z,13.9
2023-04-28T08:41:01.722Z,14.2
2023-04-28T08:42:01.610Z,14.1
2023-04-28T08:43:01.938Z,14
2023-04-28T08:44:01.986Z,14.1
2023-04-28T08:45:01.800Z,13.9
2023-04-28T08:46:01.730Z,14.8
2023-04-28T08:47:01.862Z,14.2
2023-04-28T08:48:02.180Z,14.2
2023-04-28T08:49:02.075Z,14.3
2023-04-28T08:50:02.195Z,14.1
2023-04-28T08:51:02.108Z,14.4
2023-04-28T08:52:02.147Z,14.5
2023-04-28T08:53:02.032Z,15
2023-04-28T08:55:01.409Z,14.8
2023-04-28T08:56:01.461Z,14.8
2023-04-28T08:57:01.411Z,14.3
2023-04-28T08:58:01.378Z,14.5
2023-04-28T08:59:01.241Z,14.7
2023-04-28T09:00:02.326Z,14.6
2023-04-28T09:01:02.204Z,14.7
2023-04-28T09:02:02.130Z,14.7
2023-04-28T09:03:02.360Z,14.8
2023-04-28T09:04:01.828Z,15.2
2023-04-28T09:05:02.380Z,15.5
2023-04-28T09:06:01.912Z,15.1
2023-04-28T09:07:01.977Z,14.9
2023-04-28T09:08:01.866Z,14.3
2023-04-28T09:09:01.840Z,14.8
2023-04-28T09:10:01.896Z,15.4
2023-04-28T09:11:01.960Z,15.1
2023-04-28T09:12:01.817Z,15.5
2023-04-28T09:13:01.869Z,15.8
2023-04-28T09:14:01.714Z,15.5
2023-04-28T09:15:01.748Z,15.8
2023-04-28T09:16:01.656Z,15.6
2023-04-28T09:17:01.654Z,15.6
2023-04-28T09:18:01.827Z,16
2023-04-28T09:19:01.711Z,15.7
2023-04-28T09:20:01.780Z,15.7
2023-04-28T09:21:02.047Z,15.9
2023-04-28T09:22:05.651Z,16.1
2023-04-28T09:23:01.774Z,16
2023-04-28T09:24:01.824Z,16.2
2023-04-28T09:25:01.630Z,15.3
2023-04-28T09:26:01.682Z,15.7
2023-04-28T09:27:01.526Z,15.8
2023-04-28T09:28:01.610Z,15.5
2023-04-28T09:29:01.444Z,16
2023-04-28T09:30:01.470Z,16.1
2023-04-28T09:31:01.296Z,16.1
2023-04-28T09:32:01.297Z,16.3
2023-04-28T09:33:02.359Z,15.5
2023-04-28T09:34:02.182Z,15.6
2023-04-28T09:35:02.275Z,16.3
2023-04-28T09:36:02.150Z,16.9
2023-04-28T09:37:02.192Z,17.2
2023-04-28T09:38:02.049Z,17.2
2023-04-28T09:39:02.103Z,17.6
2023-04-28T09:40:01.967Z,17.7
2023-04-28T09:41:02.045Z,17.8
2023-04-28T09:42:02.425Z,16.7
2023-04-28T09:43:08.869Z,16.4
2023-04-28T09:44:01.621Z,16
2023-04-28T09:45:01.529Z,16.2
2023-04-28T09:46:01.567Z,15.7
2023-04-28T09:47:03.676Z,16.6
2023-04-28T09:48:01.402Z,17.3
2023-04-28T09:49:01.414Z,17.6
2023-04-28T09:50:02.343Z,17.6
2023-04-28T09:51:02.208Z,17.4
2023-04-28T09:52:02.321Z,17.3
2023-04-28T09:53:02.185Z,17.7
2023-04-28T09:54:02.241Z,17.8
2023-04-28T09:55:02.117Z,17
2023-04-28T09:56:02.179Z,17.1
2023-04-28T09:57:02.041Z,16.6
2023-04-28T09:58:02.081Z,16.5
2023-04-28T09:59:01.946Z,16.8
2023-04-28T10:00:01.921Z,17.5
2023-04-28T10:01:01.958Z,17.6
2023-04-28T10:02:11.169Z,17.6
2023-04-28T10:03:01.676Z,17.7
2023-04-28T10:04:02.134Z,17.5
2023-04-28T10:05:01.440Z,17
2023-04-28T10:06:01.360Z,17.5
2023-04-28T10:07:01.407Z,17
2023-04-28T10:08:02.380Z,16.9
2023-04-28T10:09:02.499Z,16.1
2023-04-28T10:10:01.727Z,16.8
2023-04-28T10:11:01.796Z,17.1
2023-04-28T10:12:01.694Z,17.1
2023-04-28T10:13:01.727Z,17.2
2023-04-28T10:14:01.646Z,17.4
2023-04-28T10:15:01.665Z,18.2
2023-04-28T10:16:01.579Z,18.2
2023-04-28T10:17:01.725Z,17.9
2023-04-28T10:18:01.846Z,18.1
2023-04-28T10:19:01.668Z,18.1
2023-04-28T10:20:01.650Z,17.5
2023-04-28T10:21:01.519Z,17.5
2023-04-28T10:22:01.533Z,17.3
2023-04-28T10:23:01.408Z,16.4
2023-04-28T10:24:01.405Z,16.6
2023-04-28T10:25:01.390Z,16.3
2023-04-28T10:26:01.471Z,16.3
2023-04-28T10:27:01.294Z,16.2
2023-04-28T10:28:02.365Z,16.2
2023-04-28T10:29:02.308Z,16.7
2023-04-28T10:30:02.495Z,17.1
2023-04-28T10:31:02.067Z,16.9
2023-04-28T10:32:02.289Z,16.2
2023-04-28T10:33:01.354Z,16.6
2023-04-28T10:34:02.315Z,16.7
2023-04-28T10:35:02.242Z,17
2023-04-28T10:36:02.233Z,16.7
2023-04-28T10:37:02.266Z,17
2023-04-28T10:38:01.400Z,18.2
2023-04-28T10:39:02.369Z,17.6
2023-04-28T10:40:02.282Z,17.9
2023-04-28T10:41:02.319Z,18.6
2023-04-28T10:42:02.201Z,18.6
2023-04-28T10:43:02.312Z,17.7
2023-04-28T10:44:02.192Z,17.8
2023-04-28T10:45:02.275Z,17.8
2023-04-28T10:46:02.242Z,18.6
2023-04-28T10:47:01.464Z,18.8
2023-04-28T10:48:01.485Z,18.8
2023-04-28T10:49:01.324Z,19
2023-04-28T10:50:02.386Z,19
2023-04-28T10:51:02.328Z,18.8
2023-04-28T10:52:01.439Z,18.8
2023-04-28T10:53:01.274Z,18.4
2023-04-28T10:54:02.299Z,18.8
2023-04-28T10:55:07.032Z,19.7
2023-04-28T10:56:02.179Z,19.4
2023-04-28T10:57:02.241Z,18.8
2023-04-28T10:58:02.139Z,19.5
2023-04-28T10:59:02.252Z,19
2023-04-28T11:00:02.162Z,19.7
2023-04-28T11:01:02.310Z,19.9
2023-04-28T11:02:02.100Z,20.2
2023-04-28T11:03:02.195Z,20.7
2023-04-28T11:04:01.525Z,20.7
2023-04-28T11:05:01.544Z,20.6
2023-04-28T11:06:01.605Z,20.4
2023-04-28T11:07:01.638Z,20.2
2023-04-28T11:08:01.514Z,20.1
2023-04-28T11:09:01.576Z,20.3
2023-04-28T11:10:01.432Z,20.3
2023-04-28T11:11:01.514Z,20.7
2023-04-28T11:12:01.387Z,21.1
2023-04-28T11:13:01.350Z,20.2
2023-04-28T11:14:02.362Z,20.7
2023-04-28T11:15:02.234Z,20.8
2023-04-28T11:16:02.373Z,21.2
2023-04-28T11:17:01.452Z,20.6
2023-04-28T11:18:01.528Z,19.8
2023-04-28T11:19:01.351Z,20
2023-04-28T11:20:01.354Z,20.5
2023-04-28T11:21:01.290Z,20.3
2023-04-28T11:22:02.354Z,20
2023-04-28T11:23:02.208Z,19.7
2023-04-28T11:24:02.270Z,20.3
2023-04-28T11:25:02.207Z,19.8
2023-04-28T11:26:02.220Z,20.5
2023-04-28T11:27:02.097Z,20.9
2023-04-28T11:28:02.142Z,20.8
2023-04-28T11:29:02.028Z,20.8
2023-04-28T11:30:02.208Z,21.4
2023-04-28T11:31:01.961Z,21.3
2023-04-28T11:32:01.704Z,21.2
2023-04-28T11:33:01.691Z,20.8
2023-04-28T11:34:01.541Z,20.4
2023-04-28T11:35:01.549Z,20.8
2023-04-28T11:36:01.380Z,20.2
2023-04-28T11:37:01.461Z,20.7
2023-04-28T11:38:01.273Z,20.8
2023-04-28T11:39:02.361Z,20.8
2023-04-28T11:40:02.236Z,20.4
2023-04-28T11:41:02.314Z,19.8
2023-04-28T11:42:02.425Z,20.7
2023-04-28T11:43:01.974Z,20.8
2023-04-28T11:44:01.697Z,21.2
2023-04-28T11:45:01.738Z,20.9
2023-04-28T11:46:01.667Z,21.1
2023-04-28T11:47:02.051Z,20.8
2023-04-28T11:48:01.780Z,21.1
2023-04-28T11:49:01.801Z,21
2023-04-28T11:50:01.724Z,21.1
2023-04-28T11:51:01.822Z,21.3
2023-04-28T11:52:01.878Z,19.7
2023-04-28T11:53:01.761Z,20.5
2023-04-28T11:54:01.799Z,20.2
2023-04-28T11:55:01.588Z,19.7
2023-04-28T11:56:01.638Z,19.6
2023-04-28T11:57:01.471Z,19.9
2023-04-28T11:58:01.539Z,19.8
2023-04-28T11:59:02.557Z,20.3
2023-04-28T12:00:01.873Z,20.5
2023-04-28T12:01:01.934Z,21
2023-04-28T12:02:01.830Z,20.6
2023-04-28T12:03:01.849Z,21
2023-04-28T12:04:02.179Z,20.9
2023-04-28T12:05:02.188Z,20.4
2023-04-28T12:06:02.172Z,21.1
2023-04-28T12:07:02.307Z,20.4
2023-04-28T12:08:02.081Z,20.8
2023-04-28T12:09:02.154Z,20.8
2023-04-28T12:10:02.012Z,20.2
2023-04-28T12:11:02.050Z,20.1
2023-04-28T12:12:01.884Z,20.5
2023-04-28T12:13:01.837Z,20.6
2023-04-28T12:14:01.856Z,20.8
2023-04-28T12:15:01.726Z,21.4
2023-04-28T12:16:01.894Z,21.6
2023-04-28T12:17:01.537Z,22
2023-04-28T12:18:01.605Z,22.1
2023-04-28T12:19:01.424Z,21.4
2023-04-28T12:20:01.420Z,20.9
2023-04-28T12:21:01.316Z,20.8
2023-04-28T12:22:02.370Z,20.4
2023-04-28T12:23:02.242Z,19.9
2023-04-28T12:24:02.354Z,20.4
2023-04-28T12:25:02.217Z,19.9
2023-04-28T12:26:02.277Z,19.9
2023-04-28T12:27:02.227Z,20.1
2023-04-28T12:28:02.321Z,19.9
2023-04-28T12:29:01.569Z,20.4
2023-04-28T12:30:01.623Z,20.9
2023-04-28T12:31:01.486Z,21.4
2023-04-28T12:32:01.762Z,21.6
2023-04-28T12:33:01.845Z,21.7
2023-04-28T12:34:01.765Z,21.6
2023-04-28T12:35:01.768Z,20.6
2023-04-28T12:36:01.660Z,20
2023-04-28T12:37:01.745Z,20.2
2023-04-28T12:38:01.570Z,19.6
2023-04-28T12:39:01.588Z,20.1
2023-04-28T12:40:01.528Z,20
2023-04-28T12:41:01.533Z,20
2023-04-28T12:42:01.397Z,20.6
2023-04-28T12:43:01.435Z,20.2
2023-04-28T12:44:01.435Z,20.6
2023-04-28T12:45:01.444Z,20.9
2023-04-28T12:46:01.374Z,20.8
2023-04-28T12:47:02.089Z,21.1
2023-04-28T12:48:02.128Z,21.6
2023-04-28T12:49:02.015Z,21.6
2023-04-28T12:50:01.937Z,20.8
2023-04-28T12:51:01.932Z,21.6
2023-04-28T12:52:01.808Z,21.9
2023-04-28T12:53:01.799Z,21.3
2023-04-28T12:54:01.822Z,21.9
2023-04-28T12:55:01.726Z,21.6
2023-04-28T12:56:01.713Z,21.8
2023-04-28T12:57:01.628Z,22
2023-04-28T12:58:01.654Z,22.1
2023-04-28T12:59:01.512Z,20.7
2023-04-28T13:00:03.066Z,21.1
2023-04-28T13:01:01.910Z,21.4
2023-04-28T13:02:02.485Z,21.5
2023-04-28T13:03:02.029Z,21.3
2023-04-28T13:04:02.139Z,21.2
2023-04-28T13:05:01.349Z,21.3
2023-04-28T13:06:01.619Z,21.4
2023-04-28T13:07:01.521Z,20.9
2023-04-28T13:08:01.554Z,20.5
2023-04-28T13:09:01.386Z,20.6
2023-04-28T13:10:01.389Z,21.1
2023-04-28T13:11:02.985Z,20.8
2023-04-28T13:12:01.788Z,21.1
2023-04-28T13:13:01.845Z,21.3
2023-04-28T13:14:01.697Z,21.7
2023-04-28T13:15:01.755Z,21.8
2023-04-28T13:16:01.638Z,21.9
2023-04-28T13:17:01.718Z,22.2
2023-04-28T13:18:01.796Z,22.1
2023-04-28T13:19:01.721Z,22.3
2023-04-28T13:20:01.591Z,22.6
2023-04-28T13:21:01.510Z,22.3
2023-04-28T13:22:01.546Z,22.5
2023-04-28T13:23:01.379Z,22.2
2023-04-28T13:24:01.512Z,22.5
2023-04-28T13:25:01.366Z,22.6
2023-04-28T13:26:02.294Z,22.6
2023-04-28T13:27:02.213Z,22.5
2023-04-28T13:28:02.300Z,21
2023-04-28T13:29:02.185Z,21.9
2023-04-28T13:30:02.286Z,22
2023-04-28T13:31:02.160Z,22.1
2023-04-28T13:32:01.899Z,22.2
2023-04-28T13:33:01.897Z,21.8
2023-04-28T13:34:01.741Z,22.5
2023-04-28T13:35:01.695Z,23.2
2023-04-28T13:36:01.688Z,22.9
2023-04-28T13:37:01.609Z,21.7